Skip Navigation LinksHome page > Weather > Current weather Skip Navigation Links

Current Weather

Elmira/Corning Regional, Elmira/Corning, N.Y.

For information only: do not use for flight planning or navigation.
Latest weather
Observation time Monday, May 22, 2017 11:16 AM EDT
Local time Monday, May 22, 2017 11:39 AM EDT
Flight conditions Marginal Visual Meteorological Conditions
Winds
Wind direction Southwest (220°)
Wind speed 7 mph
Visibility 9 mi.
Present weather light rain
Sky condition
Ceiling 2,100 ft. broken clouds
Cloud layer broken clouds 2,100 ft.
Cloud layer overcast 2,800 ft.
Temperature 59°F
Dewpoint 56°F
Altimeter 29.98 in.Hg
Precipitation
Precipitation last hour 0.10 in.
Derived measurements
Relative humidity 90%
Density altitude 1100 ft.
Remarks
System requires maintenance.
Automated weather observing station with precipitation discriminator.
METAR KELM 221516Z 22006KT 9SM -RA BKN021 OVC028 15/13 A2998 RMK AO2 P0010 T01500133 $

Settings

Location code

InnerDrive.Weather 4.0.6144.1 Release CLR 4.0.30319.36366
Copyright ©2015 Inner Drive Technology. All rights reserved. Portions Copyright ©1986-2015 David Braverman.

Find weather

Site navigation


Skip Navigation Links

Place info

Page info

PayPal - The safer, easier way to pay online!

Return home.

Copyright ©2017 Inner Drive Technology. Purveyors of fine, hand-crafted computer software. Page printed 2017-05-22T15:39:43 UTC.